sensor_id;sensor_type;location;lat;lon;timestamp;P1;durP1;ratioP1;P2;durP2;ratioP2
37455;SDS011;23316;50.718;7.328;2022-07-21T00:02:06;7.93;;;5.68;;
37455;SDS011;23316;50.718;7.328;2022-07-21T00:04:34;11.35;;;5.85;;
37455;SDS011;23316;50.718;7.328;2022-07-21T00:07:01;10.90;;;6.03;;
37455;SDS011;23316;50.718;7.328;2022-07-21T00:09:29;7.68;;;5.60;;
37455;SDS011;23316;50.718;7.328;2022-07-21T00:11:56;22.63;;;7.28;;
37455;SDS011;23316;50.718;7.328;2022-07-21T00:14:25;18.73;;;7.82;;
37455;SDS011;23316;50.718;7.328;2022-07-21T00:16:52;11.27;;;6.32;;
37455;SDS011;23316;50.718;7.328;2022-07-21T00:19:20;12.10;;;7.50;;
37455;SDS011;23316;50.718;7.328;2022-07-21T00:21:48;17.38;;;7.13;;
37455;SDS011;23316;50.718;7.328;2022-07-21T00:24:15;20.02;;;6.45;;
37455;SDS011;23316;50.718;7.328;2022-07-21T00:26:43;8.43;;;5.22;;
37455;SDS011;23316;50.718;7.328;2022-07-21T00:29:11;9.90;;;5.47;;
37455;SDS011;23316;50.718;7.328;2022-07-21T00:31:39;11.65;;;5.55;;
37455;SDS011;23316;50.718;7.328;2022-07-21T00:34:07;11.27;;;5.65;;
37455;SDS011;23316;50.718;7.328;2022-07-21T00:36:34;7.43;;;5.22;;
37455;SDS011;23316;50.718;7.328;2022-07-21T00:39:02;9.63;;;5.32;;
37455;SDS011;23316;50.718;7.328;2022-07-21T00:41:29;12.43;;;5.53;;
37455;SDS011;23316;50.718;7.328;2022-07-21T00:43:57;16.38;;;5.88;;
37455;SDS011;23316;50.718;7.328;2022-07-21T00:46:24;8.82;;;5.85;;
37455;SDS011;23316;50.718;7.328;2022-07-21T00:48:53;7.30;;;6.05;;
37455;SDS011;23316;50.718;7.328;2022-07-21T00:51:20;8.27;;;5.80;;
37455;SDS011;23316;50.718;7.328;2022-07-21T00:53:48;8.40;;;5.70;;
37455;SDS011;23316;50.718;7.328;2022-07-21T00:56:15;10.32;;;6.47;;
37455;SDS011;23316;50.718;7.328;2022-07-21T00:58:44;7.78;;;6.10;;
37455;SDS011;23316;50.718;7.328;2022-07-21T01:01:11;8.73;;;6.28;;
37455;SDS011;23316;50.718;7.328;2022-07-21T01:03:39;8.13;;;5.15;;
37455;SDS011;23316;50.718;7.328;2022-07-21T01:06:08;12.93;;;7.45;;
37455;SDS011;23316;50.718;7.328;2022-07-21T01:08:35;8.25;;;5.55;;
37455;SDS011;23316;50.718;7.328;2022-07-21T01:11:03;10.13;;;6.07;;
37455;SDS011;23316;50.718;7.328;2022-07-21T01:13:30;10.35;;;6.72;;
37455;SDS011;23316;50.718;7.328;2022-07-21T01:15:58;8.02;;;6.03;;
37455;SDS011;23316;50.718;7.328;2022-07-21T01:18:25;8.43;;;6.05;;
37455;SDS011;23316;50.718;7.328;2022-07-21T01:20:54;9.18;;;5.85;;
37455;SDS011;23316;50.718;7.328;2022-07-21T01:23:23;18.95;;;6.28;;
37455;SDS011;23316;50.718;7.328;2022-07-21T01:25:51;10.18;;;6.32;;
37455;SDS011;23316;50.718;7.328;2022-07-21T01:28:18;19.75;;;8.13;;
37455;SDS011;23316;50.718;7.328;2022-07-21T01:30:46;9.75;;;6.97;;
37455;SDS011;23316;50.718;7.328;2022-07-21T01:33:13;8.68;;;6.50;;
37455;SDS011;23316;50.718;7.328;2022-07-21T01:35:41;8.40;;;6.82;;
37455;SDS011;23316;50.718;7.328;2022-07-21T01:38:09;8.43;;;6.55;;
37455;SDS011;23316;50.718;7.328;2022-07-21T01:40:56;9.45;;;6.35;;
37455;SDS011;23316;50.718;7.328;2022-07-21T01:43:41;8.13;;;6.03;;
37455;SDS011;23316;50.718;7.328;2022-07-21T01:46:10;7.65;;;6.20;;
37455;SDS011;23316;50.718;7.328;2022-07-21T01:48:40;10.18;;;6.28;;
37455;SDS011;23316;50.718;7.328;2022-07-21T01:51:09;10.00;;;6.35;;
37455;SDS011;23316;50.718;7.328;2022-07-21T01:53:36;8.52;;;6.05;;
37455;SDS011;23316;50.718;7.328;2022-07-21T01:56:06;9.05;;;5.78;;
37455;SDS011;23316;50.718;7.328;2022-07-21T01:58:34;9.02;;;6.22;;
37455;SDS011;23316;50.718;7.328;2022-07-21T02:01:02;10.13;;;6.78;;
37455;SDS011;23316;50.718;7.328;2022-07-21T02:03:29;7.63;;;6.20;;
37455;SDS011;23316;50.718;7.328;2022-07-21T02:05:59;9.40;;;6.32;;
37455;SDS011;23316;50.718;7.328;2022-07-21T02:08:27;7.35;;;5.63;;
37455;SDS011;23316;50.718;7.328;2022-07-21T02:10:55;10.55;;;6.25;;
37455;SDS011;23316;50.718;7.328;2022-07-21T02:13:24;8.98;;;5.53;;
37455;SDS011;23316;50.718;7.328;2022-07-21T02:15:52;6.60;;;5.47;;
37455;SDS011;23316;50.718;7.328;2022-07-21T02:18:19;7.68;;;5.80;;
37455;SDS011;23316;50.718;7.328;2022-07-21T02:20:47;8.43;;;5.80;;
37455;SDS011;23316;50.718;7.328;2022-07-21T02:23:15;7.75;;;5.63;;
37455;SDS011;23316;50.718;7.328;2022-07-21T02:25:44;7.50;;;5.38;;
37455;SDS011;23316;50.718;7.328;2022-07-21T02:28:12;7.60;;;5.15;;
37455;SDS011;23316;50.718;7.328;2022-07-21T02:30:41;6.22;;;5.00;;
37455;SDS011;23316;50.718;7.328;2022-07-21T02:33:08;10.85;;;6.70;;
37455;SDS011;23316;50.718;7.328;2022-07-21T02:35:36;8.98;;;5.90;;
37455;SDS011;23316;50.718;7.328;2022-07-21T02:38:03;9.02;;;6.35;;
37455;SDS011;23316;50.718;7.328;2022-07-21T02:40:31;11.48;;;6.80;;
37455;SDS011;23316;50.718;7.328;2022-07-21T02:42:58;8.55;;;6.30;;
37455;SDS011;23316;50.718;7.328;2022-07-21T02:45:26;9.98;;;5.90;;
37455;SDS011;23316;50.718;7.328;2022-07-21T02:47:56;12.60;;;7.10;;
37455;SDS011;23316;50.718;7.328;2022-07-21T02:50:25;7.10;;;6.03;;
37455;SDS011;23316;50.718;7.328;2022-07-21T02:52:54;7.88;;;5.47;;
37455;SDS011;23316;50.718;7.328;2022-07-21T02:55:22;6.60;;;5.75;;
37455;SDS011;23316;50.718;7.328;2022-07-21T02:57:54;7.80;;;5.60;;
37455;SDS011;23316;50.718;7.328;2022-07-21T03:00:30;7.22;;;5.50;;
37455;SDS011;23316;50.718;7.328;2022-07-21T03:02:59;7.53;;;6.13;;
37455;SDS011;23316;50.718;7.328;2022-07-21T03:05:26;7.38;;;5.60;;
37455;SDS011;23316;50.718;7.328;2022-07-21T03:07:54;9.75;;;6.38;;
37455;SDS011;23316;50.718;7.328;2022-07-21T03:10:21;8.73;;;6.38;;
37455;SDS011;23316;50.718;7.328;2022-07-21T03:12:49;7.60;;;6.10;;
37455;SDS011;23316;50.718;7.328;2022-07-21T03:15:16;8.13;;;6.43;;
37455;SDS011;23316;50.718;7.328;2022-07-21T03:17:44;9.50;;;6.28;;
37455;SDS011;23316;50.718;7.328;2022-07-21T03:20:13;10.75;;;5.85;;
37455;SDS011;23316;50.718;7.328;2022-07-21T03:22:41;8.68;;;5.95;;
37455;SDS011;23316;50.718;7.328;2022-07-21T03:25:09;10.13;;;5.60;;
37455;SDS011;23316;50.718;7.328;2022-07-21T03:27:37;7.38;;;5.53;;
37455;SDS011;23316;50.718;7.328;2022-07-21T03:30:06;6.20;;;5.53;;
37455;SDS011;23316;50.718;7.328;2022-07-21T03:32:35;7.47;;;6.22;;
37455;SDS011;23316;50.718;7.328;2022-07-21T03:35:03;7.65;;;5.93;;
37455;SDS011;23316;50.718;7.328;2022-07-21T03:37:33;8.10;;;6.60;;
37455;SDS011;23316;50.718;7.328;2022-07-21T03:40:06;8.60;;;7.22;;
37455;SDS011;23316;50.718;7.328;2022-07-21T03:42:35;6.95;;;5.65;;
37455;SDS011;23316;50.718;7.328;2022-07-21T03:45:03;8.27;;;5.95;;
37455;SDS011;23316;50.718;7.328;2022-07-21T03:47:31;7.22;;;5.47;;
37455;SDS011;23316;50.718;7.328;2022-07-21T03:49:58;9.07;;;5.82;;
37455;SDS011;23316;50.718;7.328;2022-07-21T03:52:26;7.10;;;5.80;;
37455;SDS011;23316;50.718;7.328;2022-07-21T03:54:55;6.45;;;5.47;;
37455;SDS011;23316;50.718;7.328;2022-07-21T03:57:34;7.50;;;5.40;;
37455;SDS011;23316;50.718;7.328;2022-07-21T04:00:03;8.98;;;5.72;;
37455;SDS011;23316;50.718;7.328;2022-07-21T04:02:32;6.53;;;5.00;;
37455;SDS011;23316;50.718;7.328;2022-07-21T04:05:00;7.80;;;4.97;;
37455;SDS011;23316;50.718;7.328;2022-07-21T04:07:27;7.18;;;5.30;;
37455;SDS011;23316;50.718;7.328;2022-07-21T04:09:56;8.52;;;6.07;;
37455;SDS011;23316;50.718;7.328;2022-07-21T04:12:24;9.57;;;6.25;;
37455;SDS011;23316;50.718;7.328;2022-07-21T04:14:53;7.03;;;5.65;;
37455;SDS011;23316;50.718;7.328;2022-07-21T04:17:20;8.57;;;5.63;;
37455;SDS011;23316;50.718;7.328;2022-07-21T04:19:48;6.45;;;5.05;;
37455;SDS011;23316;50.718;7.328;2022-07-21T04:22:16;7.20;;;4.90;;
37455;SDS011;23316;50.718;7.328;2022-07-21T04:24:45;7.78;;;4.90;;
37455;SDS011;23316;50.718;7.328;2022-07-21T04:27:14;6.53;;;5.10;;
37455;SDS011;23316;50.718;7.328;2022-07-21T04:29:41;6.90;;;5.20;;
37455;SDS011;23316;50.718;7.328;2022-07-21T04:32:10;7.18;;;5.55;;
37455;SDS011;23316;50.718;7.328;2022-07-21T04:34:37;10.07;;;6.38;;
37455;SDS011;23316;50.718;7.328;2022-07-21T04:37:05;10.57;;;6.45;;
37455;SDS011;23316;50.718;7.328;2022-07-21T04:39:32;7.50;;;5.65;;
37455;SDS011;23316;50.718;7.328;2022-07-21T04:42:00;6.70;;;5.53;;
37455;SDS011;23316;50.718;7.328;2022-07-21T04:44:32;8.43;;;5.60;;
37455;SDS011;23316;50.718;7.328;2022-07-21T04:46:59;7.03;;;5.38;;
37455;SDS011;23316;50.718;7.328;2022-07-21T04:49:30;7.15;;;5.50;;
37455;SDS011;23316;50.718;7.328;2022-07-21T04:52:00;7.45;;;5.32;;
37455;SDS011;23316;50.718;7.328;2022-07-21T04:54:27;12.20;;;8.43;;
37455;SDS011;23316;50.718;7.328;2022-07-21T04:56:55;9.07;;;5.63;;
37455;SDS011;23316;50.718;7.328;2022-07-21T04:59:22;7.38;;;5.57;;
37455;SDS011;23316;50.718;7.328;2022-07-21T05:01:54;6.43;;;4.97;;
37455;SDS011;23316;50.718;7.328;2022-07-21T05:04:22;7.75;;;4.88;;
37455;SDS011;23316;50.718;7.328;2022-07-21T05:06:49;7.47;;;4.82;;
37455;SDS011;23316;50.718;7.328;2022-07-21T05:09:17;6.47;;;4.53;;
37455;SDS011;23316;50.718;7.328;2022-07-21T05:11:44;6.07;;;4.50;;
37455;SDS011;23316;50.718;7.328;2022-07-21T05:14:12;7.78;;;5.05;;
37455;SDS011;23316;50.718;7.328;2022-07-21T05:16:40;7.20;;;4.32;;
37455;SDS011;23316;50.718;7.328;2022-07-21T05:19:09;7.15;;;5.22;;
37455;SDS011;23316;50.718;7.328;2022-07-21T05:21:36;6.95;;;4.93;;
37455;SDS011;23316;50.718;7.328;2022-07-21T05:24:04;6.28;;;5.07;;
37455;SDS011;23316;50.718;7.328;2022-07-21T05:26:32;8.57;;;4.55;;
37455;SDS011;23316;50.718;7.328;2022-07-21T05:28:59;7.82;;;5.47;;
37455;SDS011;23316;50.718;7.328;2022-07-21T05:31:27;7.53;;;5.63;;
37455;SDS011;23316;50.718;7.328;2022-07-21T05:33:54;6.75;;;5.40;;
37455;SDS011;23316;50.718;7.328;2022-07-21T05:36:23;10.15;;;5.57;;
37455;SDS011;23316;50.718;7.328;2022-07-21T05:38:51;9.13;;;6.00;;
37455;SDS011;23316;50.718;7.328;2022-07-21T05:41:18;9.40;;;5.63;;
37455;SDS011;23316;50.718;7.328;2022-07-21T05:43:46;9.27;;;5.25;;
37455;SDS011;23316;50.718;7.328;2022-07-21T05:46:14;8.77;;;5.47;;
37455;SDS011;23316;50.718;7.328;2022-07-21T05:48:42;10.68;;;6.43;;
37455;SDS011;23316;50.718;7.328;2022-07-21T05:51:09;8.80;;;5.72;;
37455;SDS011;23316;50.718;7.328;2022-07-21T05:53:41;8.05;;;5.40;;
37455;SDS011;23316;50.718;7.328;2022-07-21T05:56:09;8.25;;;6.22;;
37455;SDS011;23316;50.718;7.328;2022-07-21T05:58:36;6.75;;;5.20;;
37455;SDS011;23316;50.718;7.328;2022-07-21T06:01:04;7.93;;;5.70;;
37455;SDS011;23316;50.718;7.328;2022-07-21T06:03:35;5.88;;;5.10;;
37455;SDS011;23316;50.718;7.328;2022-07-21T06:06:02;10.75;;;5.63;;
37455;SDS011;23316;50.718;7.328;2022-07-21T06:08:30;7.65;;;5.25;;
37455;SDS011;23316;50.718;7.328;2022-07-21T06:10:59;10.35;;;5.50;;
37455;SDS011;23316;50.718;7.328;2022-07-21T06:13:27;8.23;;;5.95;;
37455;SDS011;23316;50.718;7.328;2022-07-21T06:15:54;9.43;;;6.07;;
37455;SDS011;23316;50.718;7.328;2022-07-21T06:18:22;7.10;;;5.70;;
37455;SDS011;23316;50.718;7.328;2022-07-21T06:20:49;10.27;;;6.53;;
37455;SDS011;23316;50.718;7.328;2022-07-21T06:23:17;8.00;;;5.72;;
37455;SDS011;23316;50.718;7.328;2022-07-21T06:25:45;8.65;;;5.97;;
37455;SDS011;23316;50.718;7.328;2022-07-21T06:28:14;8.57;;;6.05;;
37455;SDS011;23316;50.718;7.328;2022-07-21T06:30:41;7.18;;;5.90;;
37455;SDS011;23316;50.718;7.328;2022-07-21T06:33:09;10.07;;;5.80;;
37455;SDS011;23316;50.718;7.328;2022-07-21T06:35:37;9.07;;;6.03;;
37455;SDS011;23316;50.718;7.328;2022-07-21T06:38:04;9.32;;;6.30;;
37455;SDS011;23316;50.718;7.328;2022-07-21T06:40:32;8.88;;;6.65;;
37455;SDS011;23316;50.718;7.328;2022-07-21T06:42:59;9.43;;;5.78;;
37455;SDS011;23316;50.718;7.328;2022-07-21T06:45:28;6.72;;;5.32;;
37455;SDS011;23316;50.718;7.328;2022-07-21T06:48:01;8.43;;;6.05;;
37455;SDS011;23316;50.718;7.328;2022-07-21T06:50:29;7.78;;;5.50;;
37455;SDS011;23316;50.718;7.328;2022-07-21T06:52:57;8.15;;;5.97;;
37455;SDS011;23316;50.718;7.328;2022-07-21T06:55:27;7.07;;;5.40;;
37455;SDS011;23316;50.718;7.328;2022-07-21T06:57:55;9.30;;;6.00;;
37455;SDS011;23316;50.718;7.328;2022-07-21T07:00:23;6.85;;;5.78;;
37455;SDS011;23316;50.718;7.328;2022-07-21T07:02:51;8.23;;;5.70;;
37455;SDS011;23316;50.718;7.328;2022-07-21T07:05:19;8.57;;;5.63;;
37455;SDS011;23316;50.718;7.328;2022-07-21T07:07:46;7.22;;;4.82;;
37455;SDS011;23316;50.718;7.328;2022-07-21T07:10:14;9.02;;;5.80;;
37455;SDS011;23316;50.718;7.328;2022-07-21T07:12:42;7.68;;;4.88;;
37455;SDS011;23316;50.718;7.328;2022-07-21T07:15:09;6.57;;;4.70;;
37455;SDS011;23316;50.718;7.328;2022-07-21T07:17:37;8.43;;;4.63;;
37455;SDS011;23316;50.718;7.328;2022-07-21T07:20:07;6.78;;;4.88;;
37455;SDS011;23316;50.718;7.328;2022-07-21T07:22:40;5.38;;;4.47;;
37455;SDS011;23316;50.718;7.328;2022-07-21T07:25:11;6.40;;;4.63;;
37455;SDS011;23316;50.718;7.328;2022-07-21T07:27:45;6.57;;;4.60;;
37455;SDS011;23316;50.718;7.328;2022-07-21T07:30:15;6.53;;;4.88;;
37455;SDS011;23316;50.718;7.328;2022-07-21T07:32:43;6.28;;;4.40;;
37455;SDS011;23316;50.718;7.328;2022-07-21T07:35:14;7.47;;;4.68;;
37455;SDS011;23316;50.718;7.328;2022-07-21T07:37:43;7.55;;;4.90;;
37455;SDS011;23316;50.718;7.328;2022-07-21T07:40:12;10.23;;;5.32;;
37455;SDS011;23316;50.718;7.328;2022-07-21T07:42:41;6.35;;;5.25;;
37455;SDS011;23316;50.718;7.328;2022-07-21T07:45:12;7.72;;;5.68;;
37455;SDS011;23316;50.718;7.328;2022-07-21T07:47:40;7.55;;;5.70;;
37455;SDS011;23316;50.718;7.328;2022-07-21T07:50:12;8.82;;;5.70;;
37455;SDS011;23316;50.718;7.328;2022-07-21T07:52:44;7.18;;;5.80;;
37455;SDS011;23316;50.718;7.328;2022-07-21T07:55:12;11.68;;;5.90;;
37455;SDS011;23316;50.718;7.328;2022-07-21T07:57:40;7.57;;;6.38;;
37455;SDS011;23316;50.718;7.328;2022-07-21T08:00:09;6.97;;;5.43;;
37455;SDS011;23316;50.718;7.328;2022-07-21T08:02:38;9.80;;;6.10;;
37455;SDS011;23316;50.718;7.328;2022-07-21T08:05:06;7.75;;;6.03;;
37455;SDS011;23316;50.718;7.328;2022-07-21T08:07:38;7.32;;;5.68;;
37455;SDS011;23316;50.718;7.328;2022-07-21T08:10:06;8.00;;;6.22;;
37455;SDS011;23316;50.718;7.328;2022-07-21T08:12:35;8.43;;;5.43;;
37455;SDS011;23316;50.718;7.328;2022-07-21T08:15:03;6.45;;;5.22;;
37455;SDS011;23316;50.718;7.328;2022-07-21T08:17:31;9.32;;;6.00;;
37455;SDS011;23316;50.718;7.328;2022-07-21T08:19:59;5.72;;;5.13;;
37455;SDS011;23316;50.718;7.328;2022-07-21T08:22:29;6.32;;;5.20;;
37455;SDS011;23316;50.718;7.328;2022-07-21T08:24:58;5.95;;;5.20;;
37455;SDS011;23316;50.718;7.328;2022-07-21T08:27:25;7.43;;;5.20;;
37455;SDS011;23316;50.718;7.328;2022-07-21T08:29:53;9.90;;;5.60;;
37455;SDS011;23316;50.718;7.328;2022-07-21T08:32:20;5.65;;;5.10;;
37455;SDS011;23316;50.718;7.328;2022-07-21T08:34:50;6.65;;;4.90;;
37455;SDS011;23316;50.718;7.328;2022-07-21T08:37:18;7.10;;;4.70;;
37455;SDS011;23316;50.718;7.328;2022-07-21T08:39:46;6.07;;;5.20;;
37455;SDS011;23316;50.718;7.328;2022-07-21T08:42:15;9.15;;;5.78;;
37455;SDS011;23316;50.718;7.328;2022-07-21T08:44:43;6.63;;;5.32;;
37455;SDS011;23316;50.718;7.328;2022-07-21T08:47:11;6.78;;;5.60;;
37455;SDS011;23316;50.718;7.328;2022-07-21T08:49:39;7.63;;;5.35;;
37455;SDS011;23316;50.718;7.328;2022-07-21T08:52:09;6.53;;;4.72;;
37455;SDS011;23316;50.718;7.328;2022-07-21T08:54:38;6.20;;;4.50;;
37455;SDS011;23316;50.718;7.328;2022-07-21T08:57:10;6.68;;;4.80;;
37455;SDS011;23316;50.718;7.328;2022-07-21T08:59:42;6.80;;;4.50;;
37455;SDS011;23316;50.718;7.328;2022-07-21T09:02:24;10.68;;;4.80;;
37455;SDS011;23316;50.718;7.328;2022-07-21T09:04:53;7.40;;;4.30;;
37455;SDS011;23316;50.718;7.328;2022-07-21T09:07:23;6.03;;;4.03;;
37455;SDS011;23316;50.718;7.328;2022-07-21T09:09:55;4.90;;;3.35;;
37455;SDS011;23316;50.718;7.328;2022-07-21T09:12:28;6.03;;;3.65;;
37455;SDS011;23316;50.718;7.328;2022-07-21T09:17:44;7.20;;;3.38;;
37455;SDS011;23316;50.718;7.328;2022-07-21T09:20:22;6.35;;;3.08;;
37455;SDS011;23316;50.718;7.328;2022-07-21T09:23:03;5.40;;;2.90;;
37455;SDS011;23316;50.718;7.328;2022-07-21T09:25:40;4.43;;;2.97;;
37455;SDS011;23316;50.718;7.328;2022-07-21T09:28:10;4.95;;;3.13;;
37455;SDS011;23316;50.718;7.328;2022-07-21T09:31:01;4.82;;;3.35;;
37455;SDS011;23316;50.718;7.328;2022-07-21T09:33:36;6.45;;;3.13;;
37455;SDS011;23316;50.718;7.328;2022-07-21T09:36:11;4.57;;;2.80;;
37455;SDS011;23316;50.718;7.328;2022-07-21T09:38:42;8.00;;;3.30;;
37455;SDS011;23316;50.718;7.328;2022-07-21T09:41:18;4.32;;;3.30;;
37455;SDS011;23316;50.718;7.328;2022-07-21T09:43:48;4.55;;;3.00;;
37455;SDS011;23316;50.718;7.328;2022-07-21T09:46:22;5.00;;;3.13;;
37455;SDS011;23316;50.718;7.328;2022-07-21T09:49:09;7.63;;;3.42;;
37455;SDS011;23316;50.718;7.328;2022-07-21T09:51:37;6.65;;;3.15;;
37455;SDS011;23316;50.718;7.328;2022-07-21T09:54:18;4.88;;;3.03;;
37455;SDS011;23316;50.718;7.328;2022-07-21T09:56:58;4.07;;;2.80;;
37455;SDS011;23316;50.718;7.328;2022-07-21T09:59:32;5.18;;;2.80;;
37455;SDS011;23316;50.718;7.328;2022-07-21T10:02:02;5.75;;;2.70;;
37455;SDS011;23316;50.718;7.328;2022-07-21T10:04:36;6.03;;;3.40;;
37455;SDS011;23316;50.718;7.328;2022-07-21T10:07:05;4.60;;;2.72;;
37455;SDS011;23316;50.718;7.328;2022-07-21T10:09:33;3.47;;;2.75;;
37455;SDS011;23316;50.718;7.328;2022-07-21T10:12:00;3.78;;;2.80;;
37455;SDS011;23316;50.718;7.328;2022-07-21T10:14:28;6.20;;;3.40;;
37455;SDS011;23316;50.718;7.328;2022-07-21T10:16:59;16.65;;;9.68;;
37455;SDS011;23316;50.718;7.328;2022-07-21T10:19:32;5.80;;;3.67;;
37455;SDS011;23316;50.718;7.328;2022-07-21T10:22:08;5.97;;;3.90;;
37455;SDS011;23316;50.718;7.328;2022-07-21T10:24:46;5.18;;;3.47;;
37455;SDS011;23316;50.718;7.328;2022-07-21T10:27:14;5.90;;;3.55;;
37455;SDS011;23316;50.718;7.328;2022-07-21T10:29:52;4.15;;;2.90;;
37455;SDS011;23316;50.718;7.328;2022-07-21T10:32:27;4.90;;;3.00;;
37455;SDS011;23316;50.718;7.328;2022-07-21T10:35:00;7.05;;;3.42;;
37455;SDS011;23316;50.718;7.328;2022-07-21T10:37:43;3.63;;;2.97;;
37455;SDS011;23316;50.718;7.328;2022-07-21T10:49:00;6.60;;;3.38;;
37455;SDS011;23316;50.718;7.328;2022-07-21T10:51:30;8.23;;;3.35;;
37455;SDS011;23316;50.718;7.328;2022-07-21T10:54:17;6.38;;;3.20;;
37455;SDS011;23316;50.718;7.328;2022-07-21T11:02:49;4.65;;;2.50;;
37455;SDS011;23316;50.718;7.328;2022-07-21T11:05:19;4.40;;;2.78;;
37455;SDS011;23316;50.718;7.328;2022-07-21T11:10:46;5.75;;;3.40;;
37455;SDS011;23316;50.718;7.328;2022-07-21T11:13:15;5.55;;;3.25;;
37455;SDS011;23316;50.718;7.328;2022-07-21T11:15:44;6.97;;;3.00;;
37455;SDS011;23316;50.718;7.328;2022-07-21T11:18:16;4.60;;;3.25;;
37455;SDS011;23316;50.718;7.328;2022-07-21T11:20:43;4.60;;;3.17;;
37455;SDS011;23316;50.718;7.328;2022-07-21T11:23:35;4.15;;;3.10;;
37455;SDS011;23316;50.718;7.328;2022-07-21T11:26:03;4.35;;;3.40;;
37455;SDS011;23316;50.718;7.328;2022-07-21T11:28:31;6.15;;;2.90;;
37455;SDS011;23316;50.718;7.328;2022-07-21T11:31:08;6.05;;;3.58;;
37455;SDS011;23316;50.718;7.328;2022-07-21T11:33:44;5.60;;;3.65;;
37455;SDS011;23316;50.718;7.328;2022-07-21T11:36:22;5.38;;;3.22;;
37455;SDS011;23316;50.718;7.328;2022-07-21T11:39:03;5.85;;;3.58;;
37455;SDS011;23316;50.718;7.328;2022-07-21T11:41:32;4.32;;;3.40;;
37455;SDS011;23316;50.718;7.328;2022-07-21T11:44:01;5.65;;;3.17;;
37455;SDS011;23316;50.718;7.328;2022-07-21T11:46:38;4.85;;;3.00;;
37455;SDS011;23316;50.718;7.328;2022-07-21T11:49:11;6.07;;;4.03;;
37455;SDS011;23316;50.718;7.328;2022-07-21T11:51:45;4.28;;;3.20;;
37455;SDS011;23316;50.718;7.328;2022-07-21T11:54:21;6.38;;;3.70;;
37455;SDS011;23316;50.718;7.328;2022-07-21T11:56:50;5.80;;;3.42;;
37455;SDS011;23316;50.718;7.328;2022-07-21T11:59:18;6.25;;;4.07;;
37455;SDS011;23316;50.718;7.328;2022-07-21T12:01:49;5.38;;;4.15;;
37455;SDS011;23316;50.718;7.328;2022-07-21T12:04:29;4.88;;;3.55;;
37455;SDS011;23316;50.718;7.328;2022-07-21T12:07:05;7.53;;;3.72;;
37455;SDS011;23316;50.718;7.328;2022-07-21T12:09:38;6.55;;;3.78;;
37455;SDS011;23316;50.718;7.328;2022-07-21T12:12:07;5.20;;;3.90;;
37455;SDS011;23316;50.718;7.328;2022-07-21T12:14:41;8.10;;;3.78;;
37455;SDS011;23316;50.718;7.328;2022-07-21T12:17:10;8.10;;;4.20;;
37455;SDS011;23316;50.718;7.328;2022-07-21T12:19:38;7.38;;;4.22;;
37455;SDS011;23316;50.718;7.328;2022-07-21T12:22:06;7.68;;;4.53;;
37455;SDS011;23316;50.718;7.328;2022-07-21T12:24:51;6.18;;;4.40;;
37455;SDS011;23316;50.718;7.328;2022-07-21T12:27:20;8.98;;;5.25;;
37455;SDS011;23316;50.718;7.328;2022-07-21T12:29:48;9.95;;;5.70;;
37455;SDS011;23316;50.718;7.328;2022-07-21T12:35:17;7.93;;;5.63;;
37455;SDS011;23316;50.718;7.328;2022-07-21T12:37:55;8.18;;;6.03;;
37455;SDS011;23316;50.718;7.328;2022-07-21T12:40:29;11.20;;;6.30;;
37455;SDS011;23316;50.718;7.328;2022-07-21T12:43:14;13.18;;;7.10;;
37455;SDS011;23316;50.718;7.328;2022-07-21T12:45:44;9.23;;;6.30;;
37455;SDS011;23316;50.718;7.328;2022-07-21T12:48:21;10.15;;;6.57;;
37455;SDS011;23316;50.718;7.328;2022-07-21T12:51:03;11.13;;;5.90;;
37455;SDS011;23316;50.718;7.328;2022-07-21T12:53:35;11.75;;;6.22;;
37455;SDS011;23316;50.718;7.328;2022-07-21T12:56:05;9.38;;;5.68;;
37455;SDS011;23316;50.718;7.328;2022-07-21T12:58:33;10.18;;;5.70;;
37455;SDS011;23316;50.718;7.328;2022-07-21T13:01:02;6.68;;;5.75;;
37455;SDS011;23316;50.718;7.328;2022-07-21T13:03:30;7.20;;;5.53;;
37455;SDS011;23316;50.718;7.328;2022-07-21T13:05:59;7.47;;;5.40;;
37455;SDS011;23316;50.718;7.328;2022-07-21T13:08:28;7.38;;;5.65;;
37455;SDS011;23316;50.718;7.328;2022-07-21T13:10:56;8.30;;;5.35;;
37455;SDS011;23316;50.718;7.328;2022-07-21T13:13:25;9.77;;;6.28;;
37455;SDS011;23316;50.718;7.328;2022-07-21T13:15:53;6.85;;;5.45;;
37455;SDS011;23316;50.718;7.328;2022-07-21T13:18:21;7.78;;;5.65;;
37455;SDS011;23316;50.718;7.328;2022-07-21T13:20:49;7.00;;;5.28;;
37455;SDS011;23316;50.718;7.328;2022-07-21T13:23:16;9.80;;;5.57;;
37455;SDS011;23316;50.718;7.328;2022-07-21T13:25:44;17.35;;;10.38;;
37455;SDS011;23316;50.718;7.328;2022-07-21T13:28:13;25.98;;;16.58;;
37455;SDS011;23316;50.718;7.328;2022-07-21T13:30:43;14.75;;;8.80;;
37455;SDS011;23316;50.718;7.328;2022-07-21T13:33:11;11.52;;;7.45;;
37455;SDS011;23316;50.718;7.328;2022-07-21T13:35:39;10.07;;;6.68;;
37455;SDS011;23316;50.718;7.328;2022-07-21T13:38:07;11.15;;;6.70;;
37455;SDS011;23316;50.718;7.328;2022-07-21T13:40:35;9.25;;;6.75;;
37455;SDS011;23316;50.718;7.328;2022-07-21T13:43:02;17.48;;;7.50;;
37455;SDS011;23316;50.718;7.328;2022-07-21T13:45:30;11.77;;;7.53;;
37455;SDS011;23316;50.718;7.328;2022-07-21T13:48:05;10.63;;;8.10;;
37455;SDS011;23316;50.718;7.328;2022-07-21T13:50:32;19.13;;;8.23;;
37455;SDS011;23316;50.718;7.328;2022-07-21T13:53:03;13.65;;;7.50;;
37455;SDS011;23316;50.718;7.328;2022-07-21T13:55:31;11.77;;;8.00;;
37455;SDS011;23316;50.718;7.328;2022-07-21T13:57:58;16.48;;;8.70;;
37455;SDS011;23316;50.718;7.328;2022-07-21T14:00:26;12.25;;;8.52;;
37455;SDS011;23316;50.718;7.328;2022-07-21T14:02:53;14.38;;;9.02;;
37455;SDS011;23316;50.718;7.328;2022-07-21T14:05:22;12.32;;;8.82;;
37455;SDS011;23316;50.718;7.328;2022-07-21T14:07:50;14.40;;;9.68;;
37455;SDS011;23316;50.718;7.328;2022-07-21T14:10:21;15.00;;;9.55;;
37455;SDS011;23316;50.718;7.328;2022-07-21T14:12:52;12.05;;;9.20;;
37455;SDS011;23316;50.718;7.328;2022-07-21T14:15:19;13.02;;;10.20;;
37455;SDS011;23316;50.718;7.328;2022-07-21T14:17:46;15.52;;;9.73;;
37455;SDS011;23316;50.718;7.328;2022-07-21T14:20:17;12.93;;;9.00;;
37455;SDS011;23316;50.718;7.328;2022-07-21T14:22:46;13.65;;;9.35;;
37455;SDS011;23316;50.718;7.328;2022-07-21T14:25:13;14.13;;;8.98;;
37455;SDS011;23316;50.718;7.328;2022-07-21T14:27:48;15.05;;;10.05;;
37455;SDS011;23316;50.718;7.328;2022-07-21T14:30:16;16.80;;;11.60;;
37455;SDS011;23316;50.718;7.328;2022-07-21T14:32:45;17.98;;;10.68;;
37455;SDS011;23316;50.718;7.328;2022-07-21T14:35:13;14.18;;;10.50;;
37455;SDS011;23316;50.718;7.328;2022-07-21T14:37:42;13.05;;;9.27;;
37455;SDS011;23316;50.718;7.328;2022-07-21T14:40:15;15.15;;;9.60;;
37455;SDS011;23316;50.718;7.328;2022-07-21T14:42:45;9.80;;;7.72;;
37455;SDS011;23316;50.718;7.328;2022-07-21T14:45:13;11.95;;;8.43;;
37455;SDS011;23316;50.718;7.328;2022-07-21T14:47:42;13.15;;;9.10;;
37455;SDS011;23316;50.718;7.328;2022-07-21T14:50:14;10.18;;;8.68;;
37455;SDS011;23316;50.718;7.328;2022-07-21T14:52:43;13.23;;;9.02;;
37455;SDS011;23316;50.718;7.328;2022-07-21T14:55:10;12.18;;;8.75;;
37455;SDS011;23316;50.718;7.328;2022-07-21T14:57:40;12.77;;;9.32;;
37455;SDS011;23316;50.718;7.328;2022-07-21T15:00:08;13.75;;;9.80;;
37455;SDS011;23316;50.718;7.328;2022-07-21T15:02:39;12.77;;;10.23;;
37455;SDS011;23316;50.718;7.328;2022-07-21T15:05:06;15.73;;;10.50;;
37455;SDS011;23316;50.718;7.328;2022-07-21T15:07:37;11.48;;;9.18;;
37455;SDS011;23316;50.718;7.328;2022-07-21T15:10:05;15.40;;;10.30;;
37455;SDS011;23316;50.718;7.328;2022-07-21T15:12:37;13.35;;;9.93;;
37455;SDS011;23316;50.718;7.328;2022-07-21T15:15:11;15.10;;;10.68;;
37455;SDS011;23316;50.718;7.328;2022-07-21T15:17:41;13.25;;;10.25;;
37455;SDS011;23316;50.718;7.328;2022-07-21T15:20:09;13.60;;;9.88;;
37455;SDS011;23316;50.718;7.328;2022-07-21T15:22:40;11.45;;;9.73;;